Accueil
METAR-TAF:

METAR-TAF

Aéroports :

Base aérienne de l'OTAN de Geilenkirchen

Geilenkirchen, Allemagne

latitude: 50-57-39N, longitude: 006-2-33E, altitude: 90 m

Observation

Le bulletin a été fait il y a 14 heures et 30 minutes, à 17:50 UTC
Vent 4 kt de nord
Température 11°C
Humidité 43%
Pression 1025 hPa
Visibilité 10 km ou plus
pas de nuages en-dessous de 1500 mètres et pas de cumulonimbus.

METAR: ETNG 161750Z 36004KT CAVOK 11/M01 Q1025 NOSIG

Heure: 10:20 (08:20 UTC)

Prévision

Le bulletin a été fait il y a 15 heures et 20 minutes, à 17:00 UTC
Prévision valable du 16 à 18 UTC au 17 à 09 UTC
Vent 3 kt de nord
Visibilité 10 km ou plus
pas de nuages en-dessous de 1500 mètres et pas de cumulonimbus.

TAF: ETNG 161700Z 1618/1709 36003KT CAVOK

Observations et prévisions météorologiques de plus de 4000 aéroports (messages METAR et TAF).

Les stations disponibles sont représentées par des disques jaunes et rouges sur la carte.

Passer la souris dessus pour voir le nom de la station.

Cliquer dessus pour voir les observations et prévisions météorologiques.

Pour changer de carte: cliquez sur les boutons verts avec une croix noire pour zoomer, sur le bouton vert avec un tiret pour effectuer un zoom arrière, ou sur les flèches vertes pour les cartes adjacentes.


METAR-TAF: